createdAt,value
2019-01-26T00:00:48.686Z,42.07
2019-01-26T00:03:17.060Z,39.83
2019-01-26T00:05:45.378Z,39.97
2019-01-26T00:08:13.716Z,42.57
2019-01-26T00:10:42.003Z,39.57
2019-01-26T00:13:10.289Z,38.63
2019-01-26T00:15:38.683Z,41.97
2019-01-26T00:18:07.006Z,39.57
2019-01-26T00:20:36.521Z,40.03
2019-01-26T00:23:05.214Z,39.93
2019-01-26T00:25:33.525Z,43.00
2019-01-26T00:28:01.790Z,40.07
2019-01-26T00:30:30.075Z,39.00
2019-01-26T00:32:58.350Z,38.63
2019-01-26T00:35:26.634Z,39.63
2019-01-26T00:37:54.899Z,37.33
2019-01-26T00:40:23.168Z,39.33
2019-01-26T00:42:51.458Z,39.27
2019-01-26T00:45:19.782Z,40.20
2019-01-26T00:47:48.419Z,39.47
2019-01-26T00:50:16.694Z,35.80
2019-01-26T00:52:45.077Z,39.73
2019-01-26T00:55:13.396Z,38.00
2019-01-26T00:57:41.683Z,40.67
2019-01-26T01:00:18.484Z,37.90
2019-01-26T01:02:46.758Z,37.87
2019-01-26T01:05:15.354Z,43.30
2019-01-26T01:07:43.751Z,40.17
2019-01-26T01:10:17.787Z,38.47
2019-01-26T01:12:46.062Z,40.10
2019-01-26T01:15:20.093Z,39.33
2019-01-26T01:17:48.472Z,40.90
2019-01-26T01:20:16.824Z,36.33
2019-01-26T01:22:45.125Z,42.73
2019-01-26T01:25:13.848Z,39.47
2019-01-26T01:27:42.177Z,39.70
2019-01-26T01:30:13.704Z,40.27
2019-01-26T01:32:42.066Z,37.03
2019-01-26T01:35:10.343Z,39.10
2019-01-26T01:37:38.620Z,39.17
2019-01-26T01:40:09.187Z,39.20
2019-01-26T01:42:37.462Z,38.23
2019-01-26T01:45:09.316Z,38.90
2019-01-26T01:47:37.632Z,39.50
2019-01-26T01:50:08.408Z,40.17
2019-01-26T01:52:36.752Z,38.10
2019-01-26T01:55:08.009Z,38.87
2019-01-26T01:57:36.278Z,40.33
2019-01-26T02:00:07.883Z,42.60
2019-01-26T02:02:36.178Z,36.67
2019-01-26T02:05:05.777Z,36.77
2019-01-26T02:07:34.131Z,39.33
2019-01-26T02:10:02.403Z,39.23
2019-01-26T02:12:30.716Z,41.57
2019-01-26T02:14:58.985Z,38.10
2019-01-26T02:17:27.270Z,39.20
2019-01-26T02:19:55.556Z,37.63
2019-01-26T02:22:24.112Z,38.77
2019-01-26T02:24:52.390Z,38.07
2019-01-26T02:27:20.657Z,41.13
2019-01-26T02:29:48.974Z,37.90
2019-01-26T02:32:17.262Z,37.90
2019-01-26T02:34:45.616Z,37.63
2019-01-26T02:37:13.886Z,39.33
2019-01-26T02:39:42.181Z,38.43
2019-01-26T02:42:10.467Z,39.23
2019-01-26T02:44:38.741Z,37.13
2019-01-26T02:47:07.039Z,36.70
2019-01-26T02:49:35.305Z,38.20
2019-01-26T02:52:03.590Z,35.30
2019-01-26T02:54:31.963Z,39.03
2019-01-26T02:57:00.234Z,38.10
2019-01-26T02:59:28.597Z,37.07
2019-01-26T03:01:56.957Z,38.30
2019-01-26T03:04:25.225Z,36.20
2019-01-26T03:06:53.521Z,36.13
2019-01-26T03:09:22.061Z,36.00
2019-01-26T03:11:50.338Z,36.60
2019-01-26T03:14:18.629Z,35.77
2019-01-26T03:16:46.979Z,35.73
2019-01-26T03:19:15.291Z,36.50
2019-01-26T03:21:43.564Z,35.83
2019-01-26T03:24:11.832Z,33.77
2019-01-26T03:26:40.134Z,36.10
2019-01-26T03:29:08.414Z,38.50
2019-01-26T03:31:36.699Z,40.33
2019-01-26T03:34:05.050Z,35.77
2019-01-26T03:36:33.346Z,36.40
2019-01-26T03:39:01.634Z,36.83
2019-01-26T03:41:29.990Z,36.57
2019-01-26T03:43:58.351Z,35.67
2019-01-26T03:46:26.631Z,36.83
2019-01-26T03:48:54.949Z,35.13
2019-01-26T03:51:23.227Z,36.37
2019-01-26T03:53:51.502Z,35.17
2019-01-26T03:56:19.803Z,36.70
2019-01-26T03:58:48.107Z,35.77
2019-01-26T04:01:16.383Z,36.60
2019-01-26T04:03:44.742Z,35.23
2019-01-26T04:06:13.063Z,37.40
2019-01-26T04:08:41.332Z,36.70
2019-01-26T04:11:09.619Z,33.47
2019-01-26T04:13:37.889Z,36.43
2019-01-26T04:16:06.335Z,36.60
2019-01-26T04:18:34.609Z,36.67
2019-01-26T04:21:02.900Z,36.47
2019-01-26T04:23:31.247Z,37.17
2019-01-26T04:25:59.593Z,38.17
2019-01-26T04:28:27.865Z,36.73
2019-01-26T04:30:56.151Z,35.43
2019-01-26T04:33:24.432Z,38.43
2019-01-26T04:35:52.791Z,37.30
2019-01-26T04:38:21.476Z,36.03
2019-01-26T04:40:49.822Z,34.73
2019-01-26T04:43:18.120Z,37.33
2019-01-26T04:45:46.402Z,36.37
2019-01-26T04:48:14.690Z,35.00
2019-01-26T04:50:43.014Z,37.40
2019-01-26T04:53:11.287Z,36.30
2019-01-26T04:55:39.560Z,36.60
2019-01-26T04:58:07.875Z,34.77
2019-01-26T05:00:36.147Z,33.43
2019-01-26T05:03:24.024Z,36.23
2019-01-26T05:05:52.379Z,35.13
2019-01-26T05:08:20.729Z,36.07
2019-01-26T05:10:49.010Z,34.73
2019-01-26T05:13:17.394Z,34.97
2019-01-26T05:15:45.758Z,37.53
2019-01-26T05:18:14.113Z,33.67
2019-01-26T05:20:42.599Z,36.67
2019-01-26T05:23:30.311Z,33.83
2019-01-26T05:25:58.773Z,35.37
2019-01-26T05:28:27.052Z,37.93
2019-01-26T05:30:55.346Z,35.73
2019-01-26T05:33:24.209Z,34.00
2019-01-26T05:35:52.769Z,34.37
2019-01-26T05:38:21.074Z,37.33
2019-01-26T05:40:49.341Z,37.73
2019-01-26T05:43:17.627Z,38.90
2019-01-26T05:45:45.950Z,36.63
2019-01-26T05:48:14.241Z,39.13
2019-01-26T05:50:42.585Z,31.73
2019-01-26T05:53:10.871Z,33.93
2019-01-26T05:55:39.169Z,38.27
2019-01-26T05:58:07.450Z,39.57
2019-01-26T06:00:36.131Z,40.03
2019-01-26T06:03:04.402Z,38.33
2019-01-26T06:05:32.682Z,32.87
2019-01-26T06:08:00.968Z,37.70
2019-01-26T06:10:29.324Z,36.80
2019-01-26T06:12:58.823Z,40.53
2019-01-26T06:15:27.395Z,37.73
2019-01-26T06:17:55.693Z,38.60
2019-01-26T06:20:23.966Z,36.47
2019-01-26T06:22:52.397Z,36.33
2019-01-26T06:25:40.142Z,38.93
2019-01-26T06:28:08.492Z,36.33
2019-01-26T06:30:36.840Z,36.23
2019-01-26T06:33:05.576Z,37.33
2019-01-26T06:35:33.863Z,38.60
2019-01-26T06:38:02.138Z,35.27
2019-01-26T06:40:30.463Z,39.63
2019-01-26T06:42:58.729Z,36.60
2019-01-26T06:45:27.010Z,37.53
2019-01-26T06:48:01.902Z,37.40
2019-01-26T06:50:26.459Z,32.77
2019-01-26T06:52:54.742Z,36.40
2019-01-26T06:55:23.019Z,35.37
2019-01-26T06:57:51.338Z,34.53
2019-01-26T07:00:22.983Z,33.93
2019-01-26T07:02:51.374Z,37.30
2019-01-26T07:05:27.314Z,40.07
2019-01-26T07:07:55.589Z,37.93
2019-01-26T07:10:23.864Z,41.43
2019-01-26T07:12:52.170Z,37.60
2019-01-26T07:15:21.289Z,36.93
2019-01-26T07:17:49.551Z,37.07
2019-01-26T07:20:20.558Z,39.23
2019-01-26T07:22:48.843Z,38.57
2019-01-26T07:25:17.246Z,39.97
2019-01-26T07:27:45.538Z,41.07
2019-01-26T07:30:21.720Z,43.87
2019-01-26T07:32:50.086Z,43.43
2019-01-26T07:35:18.371Z,41.00
2019-01-26T07:37:46.977Z,37.97
2019-01-26T07:40:18.453Z,40.20
2019-01-26T07:42:46.726Z,35.40
2019-01-26T07:45:15.012Z,35.27
2019-01-26T07:47:43.308Z,38.57
2019-01-26T07:50:14.507Z,38.40
2019-01-26T07:52:42.787Z,41.20
2019-01-26T07:55:11.078Z,48.00
2019-01-26T07:57:39.362Z,60.53
2019-01-26T08:00:10.939Z,50.13
2019-01-26T08:02:40.264Z,49.33
2019-01-26T08:05:10.303Z,40.67
2019-01-26T08:07:38.618Z,40.57
2019-01-26T08:10:12.556Z,39.30
2019-01-26T08:12:40.834Z,44.00
2019-01-26T08:15:12.457Z,45.20
2019-01-26T08:17:40.742Z,39.83
2019-01-26T08:20:12.295Z,34.43
2019-01-26T08:22:40.572Z,28.53
2019-01-26T08:25:09.013Z,35.47
2019-01-26T08:27:37.603Z,33.63
2019-01-26T08:30:11.735Z,34.33
2019-01-26T08:32:40.010Z,39.83
2019-01-26T08:35:08.441Z,36.07
2019-01-26T08:37:36.713Z,35.67
2019-01-26T08:40:08.498Z,34.63
2019-01-26T08:42:36.801Z,37.03
2019-01-26T08:45:08.308Z,37.17
2019-01-26T08:47:36.596Z,35.73
2019-01-26T08:50:10.991Z,39.80
2019-01-26T08:52:39.283Z,29.57
2019-01-26T08:55:09.790Z,32.90
2019-01-26T08:57:38.112Z,31.80
2019-01-26T09:00:09.645Z,33.93
2019-01-26T09:02:54.669Z,32.40
2019-01-26T09:05:37.098Z,31.17
2019-01-26T09:08:05.381Z,34.93
2019-01-26T09:10:33.673Z,33.47
2019-01-26T09:13:01.955Z,39.10
2019-01-26T09:15:30.318Z,34.73
2019-01-26T09:17:58.588Z,35.30
2019-01-26T09:20:26.879Z,35.23
2019-01-26T09:22:55.158Z,30.13
2019-01-26T09:25:23.507Z,34.97
2019-01-26T09:27:52.328Z,31.33
2019-01-26T09:30:21.849Z,34.50
2019-01-26T09:32:50.121Z,34.63
2019-01-26T09:35:18.485Z,36.93
2019-01-26T09:37:46.851Z,35.53
2019-01-26T09:40:20.897Z,33.37
2019-01-26T09:42:49.243Z,32.73
2019-01-26T09:45:18.939Z,35.30
2019-01-26T09:47:47.997Z,35.53
2019-01-26T09:50:16.541Z,35.30
2019-01-26T09:52:44.822Z,36.50
2019-01-26T09:55:15.852Z,33.23
2019-01-26T09:57:44.135Z,36.40
2019-01-26T10:00:21.285Z,34.73
2019-01-26T10:02:49.559Z,31.03
2019-01-26T10:05:18.064Z,34.83
2019-01-26T10:07:46.382Z,33.83
2019-01-26T10:10:16.201Z,35.73
2019-01-26T10:12:44.563Z,28.60
2019-01-26T10:15:24.764Z,34.80
2019-01-26T10:17:53.221Z,35.60
2019-01-26T10:20:39.609Z,38.43
2019-01-26T10:23:07.902Z,34.23
2019-01-26T10:25:36.178Z,29.73
2019-01-26T10:28:05.903Z,31.63
2019-01-26T10:30:43.928Z,35.10
2019-01-26T10:33:12.235Z,32.97
2019-01-26T10:35:58.417Z,35.20
2019-01-26T10:38:26.801Z,37.17
2019-01-26T10:40:56.727Z,36.47
2019-01-26T10:43:29.742Z,35.10
2019-01-26T10:45:58.099Z,35.60
2019-01-26T10:48:26.391Z,33.30
2019-01-26T10:50:54.677Z,34.13
2019-01-26T10:53:23.054Z,34.93
2019-01-26T10:55:51.339Z,32.90
2019-01-26T10:58:19.623Z,28.67
2019-01-26T11:00:48.005Z,32.40
2019-01-26T11:03:16.286Z,36.93
2019-01-26T11:05:44.558Z,36.20
2019-01-26T11:08:12.959Z,30.77
2019-01-26T11:10:41.237Z,36.53
2019-01-26T11:13:09.509Z,34.87
2019-01-26T11:15:37.798Z,37.07
2019-01-26T11:18:06.089Z,39.47
2019-01-26T11:20:34.370Z,39.93
2019-01-26T11:23:02.689Z,36.40
2019-01-26T11:25:31.058Z,37.30
2019-01-26T11:27:59.399Z,39.50
2019-01-26T11:30:29.326Z,45.70
2019-01-26T11:32:57.615Z,37.20
2019-01-26T11:35:26.007Z,31.33
2019-01-26T11:37:54.339Z,34.43
2019-01-26T11:40:23.164Z,35.53
2019-01-26T11:42:52.104Z,34.50
2019-01-26T11:45:22.090Z,29.43
2019-01-26T11:47:50.372Z,33.40
2019-01-26T11:50:32.552Z,30.57
2019-01-26T11:53:01.307Z,35.70
2019-01-26T11:55:31.246Z,36.80
2019-01-26T11:57:59.525Z,35.27
2019-01-26T12:00:35.527Z,34.47
2019-01-26T12:03:05.475Z,33.97
2019-01-26T12:05:35.383Z,32.97
2019-01-26T12:08:03.706Z,35.93
2019-01-26T12:10:31.974Z,31.43
2019-01-26T12:13:00.249Z,33.97
2019-01-26T12:15:28.543Z,35.43
2019-01-26T12:17:56.823Z,35.23
2019-01-26T12:20:28.410Z,35.13
2019-01-26T12:22:56.754Z,36.43
2019-01-26T12:25:25.037Z,49.90
2019-01-26T12:27:53.315Z,45.30
2019-01-26T12:30:21.601Z,43.03
2019-01-26T12:32:49.864Z,39.40
2019-01-26T12:35:18.150Z,41.67
2019-01-26T12:37:46.556Z,38.70
2019-01-26T12:40:15.232Z,39.37
2019-01-26T12:42:43.519Z,41.67
2019-01-26T12:45:15.066Z,39.07
2019-01-26T12:47:43.346Z,35.70
2019-01-26T12:50:12.394Z,39.97
2019-01-26T12:52:42.022Z,36.53
2019-01-26T12:55:16.634Z,40.07
2019-01-26T12:57:44.927Z,37.17
2019-01-26T13:00:21.573Z,37.33
2019-01-26T13:02:49.862Z,34.27
2019-01-26T13:05:18.191Z,40.63
2019-01-26T13:07:46.467Z,39.27
2019-01-26T13:10:34.423Z,44.77
2019-01-26T13:13:02.694Z,44.37
2019-01-26T13:15:30.990Z,39.13
2019-01-26T13:17:59.270Z,40.90
2019-01-26T13:20:27.540Z,48.97
2019-01-26T13:22:55.850Z,54.40
2019-01-26T13:25:24.139Z,43.73
2019-01-26T13:27:52.419Z,39.73
2019-01-26T13:30:23.151Z,42.60
2019-01-26T13:32:51.420Z,40.77
2019-01-26T13:35:19.693Z,48.43
2019-01-26T13:37:47.986Z,53.33
2019-01-26T13:40:19.130Z,59.30
2019-01-26T13:42:47.506Z,48.13
2019-01-26T13:45:16.326Z,44.63
2019-01-26T13:47:44.611Z,48.63
2019-01-26T13:50:13.451Z,46.53
2019-01-26T13:52:41.818Z,44.63
2019-01-26T13:55:21.542Z,45.87
2019-01-26T13:57:49.944Z,44.83
2019-01-26T14:00:23.741Z,49.07
2019-01-26T14:02:52.022Z,43.93
2019-01-26T14:05:20.298Z,41.17
2019-01-26T14:07:48.577Z,45.80
2019-01-26T14:10:20.454Z,45.60
2019-01-26T14:12:48.829Z,46.83
2019-01-26T14:15:18.733Z,53.47
2019-01-26T14:17:47.022Z,49.07
2019-01-26T14:20:21.351Z,51.13
2019-01-26T14:22:49.671Z,44.10
2019-01-26T14:25:18.093Z,51.93
2019-01-26T14:27:46.491Z,53.70
2019-01-26T14:30:18.272Z,50.63
2019-01-26T14:32:52.488Z,53.20
2019-01-26T14:35:16.587Z,50.07
2019-01-26T14:37:44.898Z,52.30
2019-01-26T14:40:15.446Z,51.57
2019-01-26T14:42:43.767Z,51.87
2019-01-26T14:45:19.407Z,47.50
2019-01-26T14:47:47.737Z,50.20
2019-01-26T14:50:19.760Z,49.33
2019-01-26T14:52:48.064Z,50.07
2019-01-26T14:55:19.629Z,51.27
2019-01-26T14:57:47.913Z,51.57
2019-01-26T15:00:22.301Z,59.40
2019-01-26T15:02:50.626Z,58.47
2019-01-26T15:05:18.909Z,57.47
2019-01-26T15:07:47.257Z,56.13
2019-01-26T15:10:15.542Z,58.10
2019-01-26T15:12:43.826Z,58.80
2019-01-26T15:15:15.345Z,53.90
2019-01-26T15:17:43.629Z,51.47
2019-01-26T15:20:17.820Z,51.70
2019-01-26T15:22:46.123Z,53.80
2019-01-26T15:25:14.402Z,57.87
2019-01-26T15:27:42.763Z,53.87
2019-01-26T15:30:19.657Z,54.50
2019-01-26T15:32:48.014Z,52.93
2019-01-26T15:35:16.304Z,55.50
2019-01-26T15:37:44.589Z,54.27
2019-01-26T15:40:14.041Z,50.30
2019-01-26T15:42:42.321Z,59.23
2019-01-26T15:45:13.907Z,63.23
2019-01-26T15:47:42.186Z,58.23
2019-01-26T15:50:13.262Z,55.63
2019-01-26T15:52:41.979Z,57.10
2019-01-26T15:55:19.118Z,56.90
2019-01-26T15:57:47.878Z,61.70
2019-01-26T16:00:25.186Z,64.23
2019-01-26T16:02:53.549Z,64.23
2019-01-26T16:05:21.839Z,59.73
2019-01-26T16:07:50.167Z,56.53
2019-01-26T16:10:23.494Z,59.30
2019-01-26T16:12:51.841Z,66.23
2019-01-26T16:15:22.668Z,63.47
2019-01-26T16:17:51.057Z,61.03
2019-01-26T16:20:20.615Z,62.67
2019-01-26T16:22:48.943Z,59.90
2019-01-26T16:25:17.782Z,54.77
2019-01-26T16:27:46.049Z,60.03
2019-01-26T16:30:23.168Z,57.60
2019-01-26T16:32:51.497Z,60.77
2019-01-26T16:35:19.774Z,60.00
2019-01-26T16:37:48.185Z,58.00
2019-01-26T16:40:21.874Z,60.70
2019-01-26T16:42:50.166Z,57.70
2019-01-26T16:45:30.561Z,61.63
2019-01-26T16:47:58.847Z,67.90
2019-01-26T16:50:29.461Z,68.00
2019-01-26T16:52:57.743Z,63.50
2019-01-26T16:55:26.198Z,62.03
2019-01-26T16:57:54.477Z,56.17
2019-01-26T17:00:35.021Z,54.27
2019-01-26T17:03:03.334Z,62.47
2019-01-26T17:05:31.644Z,68.10
2019-01-26T17:08:00.506Z,67.03
2019-01-26T17:10:34.142Z,57.93
2019-01-26T17:12:59.015Z,55.83
2019-01-26T17:15:27.316Z,59.43
2019-01-26T17:17:55.676Z,59.30
2019-01-26T17:20:34.892Z,60.50
2019-01-26T17:22:59.560Z,61.60
2019-01-26T17:25:27.852Z,64.67
2019-01-26T17:27:56.133Z,65.00
2019-01-26T17:30:30.306Z,64.50
2019-01-26T17:32:58.638Z,65.40
2019-01-26T17:35:26.990Z,63.13
2019-01-26T17:37:55.336Z,64.03
2019-01-26T17:40:25.388Z,64.97
2019-01-26T17:42:53.677Z,65.50
2019-01-26T17:45:22.090Z,67.77
2019-01-26T17:47:51.109Z,69.60
2019-01-26T17:50:21.420Z,69.33
2019-01-26T17:52:49.790Z,70.03
2019-01-26T17:55:18.143Z,69.57
2019-01-26T17:57:46.501Z,66.70
2019-01-26T18:00:30.626Z,67.47
2019-01-26T18:02:58.945Z,66.43
2019-01-26T18:05:27.235Z,67.57
2019-01-26T18:07:55.510Z,73.87
2019-01-26T18:10:26.250Z,78.80
2019-01-26T18:12:54.611Z,77.17
2019-01-26T18:15:22.898Z,78.77
2019-01-26T18:17:51.218Z,81.80
2019-01-26T18:20:22.493Z,82.43
2019-01-26T18:22:50.791Z,91.90
2019-01-26T18:25:19.090Z,95.20
2019-01-26T18:27:47.381Z,83.27
2019-01-26T18:30:25.237Z,78.40
2019-01-26T18:32:53.729Z,78.87
2019-01-26T18:35:22.073Z,75.00
2019-01-26T18:37:50.364Z,75.40
2019-01-26T18:40:24.410Z,69.43
2019-01-26T18:42:52.684Z,70.87
2019-01-26T18:45:23.565Z,67.20
2019-01-26T18:47:51.853Z,67.50
2019-01-26T18:50:22.716Z,64.47
2019-01-26T18:52:51.067Z,66.30
2019-01-26T18:55:38.884Z,68.03
2019-01-26T18:58:07.169Z,71.50
2019-01-26T19:00:41.475Z,73.40
2019-01-26T19:03:28.369Z,74.03
2019-01-26T19:05:58.750Z,77.23
2019-01-26T19:08:27.036Z,82.77
2019-01-26T19:10:55.341Z,85.47
2019-01-26T19:13:23.686Z,89.63
2019-01-26T19:15:51.974Z,90.97
2019-01-26T19:18:20.285Z,92.30
2019-01-26T19:20:48.564Z,85.53
2019-01-26T19:23:16.843Z,79.10
2019-01-26T19:25:45.171Z,77.70
2019-01-26T19:28:13.449Z,72.00
2019-01-26T19:30:41.803Z,68.70
2019-01-26T19:33:10.107Z,66.77
2019-01-26T19:35:38.390Z,68.13
2019-01-26T19:38:06.668Z,65.37
2019-01-26T19:40:34.958Z,68.37
2019-01-26T19:43:03.239Z,68.17
2019-01-26T19:45:31.573Z,61.10
2019-01-26T19:47:59.856Z,65.67
2019-01-26T19:50:28.143Z,63.07
2019-01-26T19:52:56.450Z,61.07
2019-01-26T19:55:24.735Z,63.00
2019-01-26T19:57:53.121Z,61.27
2019-01-26T20:00:21.414Z,68.10
2019-01-26T20:02:49.703Z,61.13
2019-01-26T20:05:20.877Z,62.80
2019-01-26T20:07:49.229Z,64.80
2019-01-26T20:10:18.191Z,62.10
2019-01-26T20:12:46.470Z,60.13
2019-01-26T20:15:17.817Z,63.80
2019-01-26T20:17:46.098Z,69.57
2019-01-26T20:20:17.508Z,69.63
2019-01-26T20:22:45.793Z,61.77
2019-01-26T20:25:14.076Z,67.43
2019-01-26T20:27:42.378Z,62.37
2019-01-26T20:30:13.883Z,66.63
2019-01-26T20:32:42.199Z,68.73
2019-01-26T20:35:10.478Z,66.93
2019-01-26T20:37:38.766Z,70.93
2019-01-26T20:40:10.586Z,78.90
2019-01-26T20:42:38.864Z,79.43
2019-01-26T20:45:12.993Z,70.00
2019-01-26T20:47:41.287Z,64.53
2019-01-26T20:50:12.315Z,65.67
2019-01-26T20:52:40.623Z,67.70
2019-01-26T20:55:11.149Z,67.00
2019-01-26T20:57:39.686Z,73.40
2019-01-26T21:00:26.159Z,75.47
2019-01-26T21:02:54.534Z,70.13
2019-01-26T21:05:22.856Z,69.13
2019-01-26T21:07:51.174Z,68.30
2019-01-26T21:10:24.594Z,74.40
2019-01-26T21:12:52.865Z,79.73
2019-01-26T21:15:21.179Z,75.23
2019-01-26T21:17:49.463Z,75.53
2019-01-26T21:20:26.031Z,78.57
2019-01-26T21:22:54.318Z,74.10
2019-01-26T21:25:22.674Z,76.13
2019-01-26T21:27:50.963Z,69.40
2019-01-26T21:30:24.790Z,70.57
2019-01-26T21:32:53.140Z,68.27
2019-01-26T21:35:21.887Z,67.63
2019-01-26T21:37:50.179Z,65.57
2019-01-26T21:40:24.022Z,69.80
2019-01-26T21:42:53.085Z,70.23
2019-01-26T21:45:21.434Z,71.10
2019-01-26T21:47:49.713Z,73.63
2019-01-26T21:50:23.823Z,69.60
2019-01-26T21:52:52.122Z,73.47
2019-01-26T21:55:20.470Z,71.83
2019-01-26T21:57:48.796Z,69.33
2019-01-26T22:00:19.731Z,69.07
2019-01-26T22:02:48.086Z,68.87
2019-01-26T22:05:16.366Z,72.27
2019-01-26T22:07:44.656Z,71.43
2019-01-26T22:10:21.621Z,71.23
2019-01-26T22:12:49.918Z,71.57
2019-01-26T22:15:20.180Z,76.17
2019-01-26T22:17:48.465Z,76.40
2019-01-26T22:20:18.981Z,73.87
2019-01-26T22:22:48.001Z,75.10
2019-01-26T22:25:16.310Z,73.87
2019-01-26T22:27:44.591Z,73.43
2019-01-26T22:30:18.564Z,78.67
2019-01-26T22:32:46.857Z,74.50
2019-01-26T22:35:15.125Z,81.70
2019-01-26T22:37:43.669Z,80.27
2019-01-26T22:40:29.385Z,80.63
2019-01-26T22:42:57.742Z,79.40
2019-01-26T22:45:30.798Z,78.33
2019-01-26T22:47:59.232Z,79.67
2019-01-26T22:50:29.417Z,83.73
2019-01-26T22:52:57.692Z,85.23
2019-01-26T22:55:26.226Z,81.37
2019-01-26T22:57:54.821Z,79.07
2019-01-26T23:00:43.238Z,77.80
2019-01-26T23:03:11.518Z,75.57
2019-01-26T23:06:05.728Z,77.60
2019-01-26T23:08:35.946Z,75.00
2019-01-26T23:11:36.277Z,71.13
2019-01-26T23:14:17.030Z,75.83
2019-01-26T23:17:04.986Z,78.93
2019-01-26T23:19:36.533Z,80.17
2019-01-26T23:22:27.402Z,78.30
2019-01-26T23:25:14.142Z,71.70
2019-01-26T23:27:57.410Z,73.63
2019-01-26T23:30:48.480Z,72.67
2019-01-26T23:33:16.754Z,76.53
2019-01-26T23:35:45.033Z,71.83
2019-01-26T23:38:13.353Z,72.60
2019-01-26T23:40:41.634Z,75.87
2019-01-26T23:43:09.918Z,73.77
2019-01-26T23:45:38.206Z,72.07
2019-01-26T23:48:06.481Z,70.53
2019-01-26T23:50:34.839Z,73.47
2019-01-26T23:53:03.155Z,74.27
2019-01-26T23:55:31.506Z,74.03
2019-01-26T23:57:59.803Z,72.53
